Time;durP1;ratioP1;P1;durP2;ratioP2;P2;SDS_P1;SDS_P2;PMS_P1;PMS_P2;Temp;Humidity;BMP_temperature;BMP_pressure;BME280_temperature;BME280_humidity;BME280_pressure;Samples;Min_cycle;Max_cycle;Signal;HPM_P1;HPM_P2
2023/03/27 00:00:41;;;;;;;3.40;1.10;;;;;;;0.79;91.01;100775.50;5012412;28;20165;-43
2023/03/27 00:03:11;;;;;;;2.03;1.00;;;;;;;0.80;90.90;100771.09;5013233;28;20169;-43
2023/03/27 00:05:37;;;;;;;5.75;1.15;;;;;;;0.79;90.82;100766.72;5012793;28;20686;-45
2023/03/27 00:08:04;;;;;;;3.67;1.05;;;;;;;0.78;90.85;100779.00;5012901;28;20189;-43
2023/03/27 00:10:31;;;;;;;3.13;1.20;;;;;;;0.72;90.37;100779.03;5012779;28;20548;-44
2023/03/27 00:12:57;;;;;;;3.05;1.00;;;;;;;0.71;90.57;100769.34;5013067;28;20172;-45
2023/03/27 00:15:23;;;;;;;3.08;0.80;;;;;;;0.80;90.62;100777.25;5012763;28;20211;-45
2023/03/27 00:17:51;;;;;;;4.35;1.10;;;;;;;0.69;91.23;100786.91;5012907;28;20203;-44
2023/03/27 00:20:22;;;;;;;6.22;1.20;;;;;;;0.72;90.99;100779.03;4995224;28;20161;-45
2023/03/27 00:22:54;;;;;;;2.97;1.00;;;;;;;0.71;91.04;100779.88;4991967;28;20193;-48
2023/03/27 00:25:22;;;;;;;2.38;1.00;;;;;;;0.70;91.29;100783.41;5000479;28;20292;-48
2023/03/27 00:27:48;;;;;;;2.17;0.90;;;;;;;0.61;91.47;100783.38;5000282;28;20525;-46
2023/03/27 00:30:14;;;;;;;3.58;1.17;;;;;;;0.59;91.98;100803.59;4980126;28;20180;-47
2023/03/27 00:32:40;;;;;;;5.75;1.05;;;;;;;0.59;92.12;100801.84;4988928;28;20176;-48
2023/03/27 00:35:11;;;;;;;4.80;1.17;;;;;;;0.50;92.51;100795.66;4990156;28;20688;-48
2023/03/27 00:37:37;;;;;;;1.13;0.90;;;;;;;0.56;92.61;100791.28;5000249;28;20173;-48
2023/03/27 00:40:06;;;;;;;2.55;0.80;;;;;;;0.63;92.32;100797.44;4971564;28;20177;-47
2023/03/27 00:42:33;;;;;;;1.77;0.95;;;;;;;0.60;92.90;100797.44;4983955;28;20694;-48
2023/03/27 00:45:00;;;;;;;1.23;1.00;;;;;;;0.63;92.35;100789.53;5005938;28;20236;-48
2023/03/27 00:47:32;;;;;;;3.63;1.10;;;;;;;0.69;92.82;100788.69;4999059;28;20235;-47
2023/03/27 00:50:05;;;;;;;4.78;1.23;;;;;;;0.58;92.31;100791.28;4999954;28;20176;-47
2023/03/27 00:52:31;;;;;;;1.63;1.00;;;;;;;0.59;92.81;100808.84;4997266;28;20218;-47
2023/03/27 00:55:02;;;;;;;1.45;0.95;;;;;;;0.52;92.96;100797.41;5001556;28;20315;-47
2023/03/27 00:57:28;;;;;;;4.57;1.35;;;;;;;0.57;92.63;100808.88;4981634;28;20616;-48
2023/03/27 00:59:57;;;;;;;1.42;0.90;;;;;;;0.58;92.79;100791.28;5004068;28;20261;-46
2023/03/27 01:02:23;;;;;;;2.33;1.05;;;;;;;0.57;92.95;100802.72;5000682;28;20279;-47
2023/03/27 01:04:50;;;;;;;2.95;1.10;;;;;;;0.69;93.27;100801.88;5000536;28;20350;-47
2023/03/27 01:07:16;;;;;;;2.13;1.25;;;;;;;0.75;93.01;100797.47;4995179;28;20205;-46
2023/03/27 01:09:44;;;;;;;2.35;1.00;;;;;;;0.75;93.14;100802.75;4980186;28;20185;-47
2023/03/27 01:12:22;;;;;;;2.75;0.80;;;;;;;0.82;92.98;100796.59;4981178;28;20386;-48
2023/03/27 01:14:53;;;;;;;2.67;1.15;;;;;;;0.77;92.36;100790.44;4984385;28;20184;-47
2023/03/27 01:17:34;;;;;;;3.30;0.88;;;;;;;0.66;92.36;100796.59;5004795;28;20180;-47
2023/03/27 01:20:19;;;;;;;5.82;0.93;;;;;;;0.63;92.62;100796.56;4996188;28;20180;-48
2023/03/27 01:22:44;;;;;;;4.15;1.25;;;;;;;0.54;92.28;100790.41;4987840;28;20208;-48
2023/03/27 01:25:38;;;;;;;3.47;1.25;;;;;;;0.47;92.49;100793.03;4988863;28;20212;-47
2023/03/27 01:28:45;;;;;;;4.53;1.00;;;;;;;0.44;92.81;100800.91;4998315;28;20267;-48
2023/03/27 01:31:24;;;;;;;2.55;1.10;;;;;;;0.45;93.13;100800.94;4958770;28;20197;-48
2023/03/27 01:34:00;;;;;;;4.32;1.20;;;;;;;0.40;93.19;100798.28;4995010;28;20181;-46
2023/03/27 01:36:42;;;;;;;4.20;0.90;;;;;;;0.43;93.29;100789.50;4978496;28;20257;-46
2023/03/27 01:39:41;;;;;;;3.80;0.90;;;;;;;0.33;93.61;100801.78;4972883;28;20251;-47
2023/03/27 01:42:31;;;;;;;2.13;0.70;;;;;;;0.31;93.59;100795.63;4968838;28;20232;-49
2023/03/27 01:45:21;;;;;;;4.05;1.83;;;;;;;0.12;93.90;100804.34;4999467;28;20260;-49
2023/03/27 01:48:09;;;;;;;5.05;1.25;;;;;;;0.12;94.38;100799.06;4984291;28;20223;-48
2023/03/27 01:50:44;;;;;;;2.28;1.08;;;;;;;0.17;94.71;100810.50;4989882;28;20214;-47
2023/03/27 01:53:19;;;;;;;1.48;0.95;;;;;;;0.24;95.03;100814.03;4993776;28;20176;-48
2023/03/27 01:55:51;;;;;;;1.60;0.95;;;;;;;0.34;94.92;100808.81;4986050;28;20196;-47
2023/03/27 01:58:21;;;;;;;3.17;1.27;;;;;;;0.29;95.44;100812.31;5000232;28;20162;-47
2023/03/27 02:00:52;;;;;;;2.83;1.10;;;;;;;0.35;95.42;100813.22;4994800;28;20588;-48
2023/03/27 02:03:28;;;;;;;2.70;0.93;;;;;;;0.27;95.85;100822.84;4980554;28;20700;-48
2023/03/27 02:06:07;;;;;;;3.70;1.15;;;;;;;0.18;96.24;100817.53;4979608;28;20229;-47
2023/03/27 02:09:04;;;;;;;1.65;0.90;;;;;;;0.28;96.59;100828.97;4989444;28;20752;-48
2023/03/27 02:11:37;;;;;;;3.08;0.90;;;;;;;0.10;97.02;100829.78;4967503;28;20759;-44
2023/03/27 02:14:17;;;;;;;7.68;1.70;;;;;;;0.19;96.90;100832.47;4981937;28;20169;-47
2023/03/27 02:16:48;;;;;;;4.47;1.20;;;;;;;0.10;97.32;100821.88;4996397;28;20213;-47
2023/03/27 02:19:29;;;;;;;3.75;1.20;;;;;;;0.18;98.40;100835.97;4995134;28;20255;-46
2023/03/27 02:21:54;;;;;;;4.25;1.23;;;;;;;0.18;98.52;100833.34;4997888;28;20605;-48
2023/03/27 02:24:21;;;;;;;2.20;1.52;;;;;;;0.23;99.00;100841.28;4984706;28;20185;-48
2023/03/27 02:26:53;;;;;;;4.43;2.22;;;;;;;0.15;99.11;100841.22;4988943;28;20204;-46
2023/03/27 02:29:41;;;;;;;5.80;1.33;;;;;;;0.12;99.72;100834.19;4981924;28;20735;-47
2023/03/27 02:32:26;;;;;;;5.40;1.65;;;;;;;0.14;99.66;100842.09;4980025;28;20189;-48
2023/03/27 02:35:02;;;;;;;8.07;1.40;;;;;;;0.03;100.00;100849.09;4980883;28;20367;-46
2023/03/27 02:37:53;;;;;;;5.07;1.48;;;;;;;0.13;100.00;100843.88;4982123;28;20647;-47
2023/03/27 02:40:48;;;;;;;6.88;1.30;;;;;;;-0.02;100.00;100854.34;4982856;28;20243;-48
2023/03/27 02:43:44;;;;;;;5.40;1.33;;;;;;;-0.01;100.00;100850.81;4998460;28;20260;-46
2023/03/27 02:46:30;;;;;;;4.60;1.42;;;;;;;0.03;100.00;100854.34;4996395;28;20236;-47
2023/03/27 02:49:01;;;;;;;4.85;1.38;;;;;;;0.11;100.00;100850.88;5005124;28;20199;-47
2023/03/27 02:51:44;;;;;;;4.68;1.55;;;;;;;0.09;100.00;100854.34;4994992;28;20187;-47
2023/03/27 02:54:22;;;;;;;5.28;1.75;;;;;;;0.07;100.00;100870.19;4993296;28;20199;-47
2023/03/27 02:56:53;;;;;;;7.20;1.77;;;;;;;0.08;100.00;100868.41;4999275;28;20216;-47
2023/03/27 02:59:48;;;;;;;6.00;1.52;;;;;;;0.03;100.00;100870.16;4983945;28;20678;-48
2023/03/27 03:02:21;;;;;;;6.55;1.70;;;;;;;0.00;100.00;100868.38;4987942;28;20648;-48
2023/03/27 03:05:07;;;;;;;2.40;1.50;;;;;;;-0.07;100.00;100875.34;4986156;28;20296;-47
2023/03/27 03:07:39;;;;;;;5.55;1.50;;;;;;;-0.05;100.00;100881.50;4980758;28;20224;-46
2023/03/27 03:10:07;;;;;;;6.00;1.42;;;;;;;0.01;100.00;100871.91;4978717;28;20213;-47
2023/03/27 03:12:33;;;;;;;7.78;1.52;;;;;;;0.04;100.00;100874.53;4981241;28;20185;-47
2023/03/27 03:14:59;;;;;;;4.65;1.58;;;;;;;0.14;100.00;100876.34;4984726;28;20189;-47
2023/03/27 03:17:24;;;;;;;10.55;1.85;;;;;;;0.01;100.00;100898.25;4988835;28;20232;-48
2023/03/27 03:19:50;;;;;;;6.90;1.55;;;;;;;-0.10;100.00;100887.63;5000763;28;20266;-48
2023/03/27 03:22:16;;;;;;;8.07;1.73;;;;;;;-0.13;100.00;100887.59;4979356;28;20200;-46
2023/03/27 03:24:42;;;;;;;5.93;1.75;;;;;;;-0.19;100.00;100901.63;5001731;28;20177;-46
2023/03/27 03:27:09;;;;;;;9.70;1.98;;;;;;;-0.19;100.00;100901.63;4981651;28;20209;-47
2023/03/27 03:29:47;;;;;;;9.45;2.60;;;;;;;-0.16;100.00;100906.03;4988413;28;20648;-47
2023/03/27 03:32:19;;;;;;;5.93;1.73;;;;;;;-0.11;100.00;100902.56;4986110;28;20601;-47
2023/03/27 03:34:49;;;;;;;6.43;1.85;;;;;;;-0.10;100.00;100906.94;4982450;28;20176;-48
2023/03/27 03:37:14;;;;;;;5.70;1.60;;;;;;;-0.07;100.00;100911.34;4982540;28;20684;-47
2023/03/27 03:39:40;;;;;;;9.00;1.88;;;;;;;-0.08;100.00;100914.84;5000133;28;20177;-46
2023/03/27 03:42:05;;;;;;;3.38;1.60;;;;;;;-0.07;100.00;100916.59;4998438;28;20195;-48
2023/03/27 03:44:33;;;;;;;4.55;1.60;;;;;;;-0.17;100.00;100920.94;4986814;28;20177;-47
2023/03/27 03:47:03;;;;;;;8.55;1.80;;;;;;;-0.22;100.00;100915.66;4988066;28;20694;-48
2023/03/27 03:49:29;;;;;;;4.40;1.73;;;;;;;-0.28;100.00;100920.00;4998862;28;20290;-50
2023/03/27 03:51:55;;;;;;;8.63;1.65;;;;;;;-0.25;100.00;100930.53;4995035;28;20661;-45
2023/03/27 03:54:20;;;;;;;6.50;1.80;;;;;;;-0.18;100.00;100931.47;4994706;28;20176;-50
2023/03/27 03:56:47;;;;;;;5.40;1.67;;;;;;;-0.13;100.00;100925.38;5004784;28;20278;-45
2023/03/27 03:59:15;;;;;;;6.40;1.55;;;;;;;-0.11;100.00;100928.91;4982743;28;20185;-42
2023/03/27 04:02:00;;;;;;;9.10;1.77;;;;;;;-0.13;100.00;100930.63;5012749;28;20295;-44
2023/03/27 04:04:29;;;;;;;6.00;1.73;;;;;;;-0.19;100.00;100927.94;4978424;28;20172;-42
2023/03/27 04:07:08;;;;;;;6.95;1.70;;;;;;;-0.21;100.00;100935.81;4995293;28;20503;-47
2023/03/27 04:09:37;;;;;;;5.70;2.15;;;;;;;-0.18;100.00;100937.59;4994995;28;20177;-48
2023/03/27 04:12:09;;;;;;;7.03;1.73;;;;;;;-0.18;100.00;100937.59;5012872;28;20165;-42
2023/03/27 04:14:57;;;;;;;6.57;2.05;;;;;;;-0.28;100.00;100946.31;5003653;28;20646;-43
2023/03/27 04:17:42;;;;;;;4.45;1.50;;;;;;;-0.27;100.00;100951.56;5000380;28;20232;-43
2023/03/27 04:20:11;;;;;;;5.32;1.88;;;;;;;-0.33;100.00;100953.28;4985515;28;20208;-43
2023/03/27 04:22:37;;;;;;;8.07;1.65;;;;;;;-0.32;100.00;100963.81;5012055;28;20219;-43
2023/03/27 04:25:07;;;;;;;6.05;2.55;;;;;;;-0.35;100.00;100965.53;5011133;28;20200;-44
2023/03/27 04:27:34;;;;;;;4.35;1.63;;;;;;;-0.41;100.00;100971.66;4989413;28;20212;-47
2023/03/27 04:30:14;;;;;;;5.13;1.52;;;;;;;-0.43;100.00;100974.25;4975882;28;20534;-45
2023/03/27 04:33:17;;;;;;;4.93;1.65;;;;;;;-0.42;100.00;100977.78;4988093;28;20197;-45
2023/03/27 04:36:03;;;;;;;3.40;1.45;;;;;;;-0.46;100.00;100981.22;4981389;28;20205;-46
2023/03/27 04:38:38;;;;;;;10.60;1.85;;;;;;;-0.53;100.00;100972.41;4982733;28;20207;-43
2023/03/27 04:41:04;;;;;;;8.80;2.50;;;;;;;-0.50;100.00;100972.44;5005861;28;20216;-44
2023/03/27 04:43:30;;;;;;;6.15;1.80;;;;;;;-0.47;100.00;100980.34;4996420;28;20229;-42
2023/03/27 04:45:56;;;;;;;7.53;1.77;;;;;;;-0.47;100.00;100977.72;4988590;28;20300;-45
2023/03/27 04:48:21;;;;;;;5.72;1.65;;;;;;;-0.46;100.00;100981.22;4993545;28;20563;-47
2023/03/27 04:50:51;;;;;;;9.13;2.22;;;;;;;-0.45;100.00;100994.41;4992685;28;20575;-46
2023/03/27 04:53:30;;;;;;;7.20;2.20;;;;;;;-0.51;100.00;100999.63;4974949;28;20268;-48
2023/03/27 04:55:56;;;;;;;8.02;1.88;;;;;;;-0.45;100.00;100998.81;5010729;28;20201;-44
2023/03/27 04:58:24;;;;;;;6.25;1.70;;;;;;;-0.45;100.00;101004.06;4977253;28;20199;-42
2023/03/27 05:00:54;;;;;;;8.82;2.40;;;;;;;-0.48;100.00;101004.03;5009929;28;20213;-44
2023/03/27 05:03:27;;;;;;;6.38;2.10;;;;;;;-0.46;100.00;101005.84;5011900;28;20157;-45
2023/03/27 05:06:02;;;;;;;7.47;2.10;;;;;;;-0.56;100.00;100989.94;4994158;28;20287;-44
2023/03/27 05:08:28;;;;;;;7.30;1.95;;;;;;;-0.44;100.00;100998.84;4991088;28;20243;-44
2023/03/27 05:10:54;;;;;;;5.90;2.10;;;;;;;-0.46;100.00;100999.66;4979677;28;20177;-49
2023/03/27 05:13:19;;;;;;;4.95;1.50;;;;;;;-0.42;100.00;100997.09;4992462;28;20181;-44
2023/03/27 05:15:45;;;;;;;7.85;2.10;;;;;;;-0.60;100.00;101001.28;5010666;28;20289;-43
2023/03/27 05:18:13;;;;;;;7.38;1.85;;;;;;;-0.48;100.00;101010.19;4993618;28;20184;-45
2023/03/27 05:20:38;;;;;;;9.13;2.22;;;;;;;-0.58;100.00;101010.97;4990206;28;20188;-49
2023/03/27 05:23:08;;;;;;;9.23;2.97;;;;;;;-0.55;100.00;101018.00;4990998;28;20196;-43
2023/03/27 05:25:33;;;;;;;5.82;2.72;;;;;;;-0.50;100.00;101019.81;5010089;28;20196;-44
2023/03/27 05:28:01;;;;;;;9.43;4.13;;;;;;;-0.56;100.00;101019.75;4973655;28;20267;-44
2023/03/27 05:30:30;;;;;;;9.15;4.07;;;;;;;-0.50;100.00;101022.44;4991953;28;20225;-45
2023/03/27 05:33:16;;;;;;;8.65;2.35;;;;;;;-0.45;100.00;101033.03;4993506;28;20287;-44
2023/03/27 05:35:45;;;;;;;6.25;2.08;;;;;;;-0.39;100.00;101030.47;4978197;28;20270;-45
2023/03/27 05:38:11;;;;;;;6.63;1.70;;;;;;;-0.42;100.00;101035.66;4976440;28;20169;-46
2023/03/27 05:40:51;;;;;;;3.75;2.03;;;;;;;-0.58;100.00;101039.91;4990203;28;20639;-48
2023/03/27 05:43:17;;;;;;;10.85;2.63;;;;;;;-0.50;100.00;101040.00;4986854;28;20547;-44
2023/03/27 05:45:43;;;;;;;12.07;3.10;;;;;;;-0.48;100.00;101036.50;4983200;28;20339;-41
2023/03/27 05:48:09;;;;;;;6.90;3.13;;;;;;;-0.33;100.00;101048.94;4982989;28;20263;-44
2023/03/27 05:50:39;;;;;;;7.10;2.42;;;;;;;-0.24;100.00;101050.75;4986341;28;20192;-44
2023/03/27 05:53:14;;;;;;;10.98;3.25;;;;;;;-0.18;100.00;101045.56;4988457;28;20252;-46
2023/03/27 05:55:48;;;;;;;7.55;3.38;;;;;;;0.09;100.00;101054.56;4989498;28;20203;-44
2023/03/27 05:58:14;;;;;;;8.20;3.72;;;;;;;0.35;100.00;101054.75;4985983;28;20527;-44
2023/03/27 06:00:41;;;;;;;6.40;2.65;;;;;;;0.72;100.00;101045.38;4982480;28;20563;-43
2023/03/27 06:03:09;;;;;;;9.45;2.60;;;;;;;0.86;100.00;101045.44;4980510;28;20176;-44
2023/03/27 06:05:58;;;;;;;10.35;2.03;;;;;;;1.28;100.00;101045.59;4996679;28;20219;-42
2023/03/27 06:08:28;;;;;;;5.05;2.30;;;;;;;1.59;100.00;101050.06;4984881;28;20219;-43
2023/03/27 06:10:56;;;;;;;9.88;2.50;;;;;;;1.84;100.00;101047.47;4989323;28;20192;-46
2023/03/27 06:13:25;;;;;;;10.25;2.33;;;;;;;1.81;100.00;101048.34;4983426;28;20540;-43
2023/03/27 06:15:56;;;;;;;8.73;2.40;;;;;;;2.24;100.00;101058.94;4981455;28;20346;-42
2023/03/27 06:18:48;;;;;;;7.00;2.17;;;;;;;2.56;100.00;101050.09;4981696;28;20193;-44
2023/03/27 06:21:16;;;;;;;4.68;1.70;;;;;;;2.74;100.00;101048.31;4998453;28;20217;-44
2023/03/27 06:23:42;;;;;;;7.85;1.77;;;;;;;2.94;100.00;101046.47;5017794;23;20306;-46
2023/03/27 06:26:10;;;;;;;9.98;2.08;;;;;;;3.15;100.00;101042.88;5024881;28;20223;-46
2023/03/27 06:28:38;;;;;;;6.10;1.70;;;;;;;3.33;98.56;101043.66;5022328;28;20219;-50
2023/03/27 06:31:05;;;;;;;11.38;2.15;;;;;;;2.97;97.14;101035.84;5026201;28;20191;-45
2023/03/27 06:33:37;;;;;;;6.95;1.73;;;;;;;2.48;96.09;101031.59;5017515;28;20192;-47
2023/03/27 06:36:05;;;;;;;3.55;1.45;;;;;;;2.38;95.00;101028.94;5017528;28;20219;-46
2023/03/27 06:38:36;;;;;;;5.20;1.70;;;;;;;2.64;94.29;101026.25;5025293;28;20181;-46
2023/03/27 06:41:03;;;;;;;6.10;1.90;;;;;;;2.98;93.29;101027.03;5020519;28;20554;-52
2023/03/27 06:43:51;;;;;;;6.45;1.90;;;;;;;3.01;92.38;101034.09;5021087;28;20191;-46
2023/03/27 06:46:30;;;;;;;4.63;1.65;;;;;;;3.15;91.54;101031.38;5006728;28;20207;-44
2023/03/27 06:49:10;;;;;;;5.38;1.50;;;;;;;3.16;90.74;101031.38;5003654;28;20204;-45
2023/03/27 06:51:36;;;;;;;8.63;1.65;;;;;;;3.55;90.00;101036.47;5017693;28;20198;-45
2023/03/27 06:54:03;;;;;;;3.22;1.42;;;;;;;3.75;88.83;101026.63;5020986;28;20192;-43
2023/03/27 06:56:30;;;;;;;4.95;1.55;;;;;;;3.83;87.88;101026.56;5018746;28;20208;-45
2023/03/27 06:59:16;;;;;;;4.53;1.55;;;;;;;3.85;87.32;101032.75;5016560;28;20200;-45
2023/03/27 07:01:44;;;;;;;5.80;1.50;;;;;;;3.88;86.41;101033.59;5017351;28;20200;-45
2023/03/27 07:04:33;;;;;;;5.55;1.50;;;;;;;4.06;86.25;101031.69;5014356;28;20217;-43
2023/03/27 07:07:12;;;;;;;7.60;1.85;;;;;;;4.23;85.67;101034.19;5017345;28;20263;-45
2023/03/27 07:09:40;;;;;;;4.05;1.23;;;;;;;4.52;85.01;101040.09;5025626;28;20188;-45
2023/03/27 07:12:08;;;;;;;5.57;1.40;;;;;;;4.80;84.14;101033.63;5017465;28;20299;-46
2023/03/27 07:14:34;;;;;;;4.90;1.20;;;;;;;4.94;83.72;101040.53;5024837;28;20585;-46
2023/03/27 07:17:00;;;;;;;6.93;1.60;;;;;;;5.11;82.72;101042.09;5019120;28;20176;-46
2023/03/27 07:19:32;;;;;;;3.75;1.70;;;;;;;5.41;82.00;101043.50;5019489;28;20184;-44
2023/03/27 07:22:05;;;;;;;4.50;1.70;;;;;;;5.16;81.80;101041.16;5016361;28;20280;-46
2023/03/27 07:24:35;;;;;;;5.38;1.70;;;;;;;5.67;81.60;101035.16;5038572;28;20813;-46
2023/03/27 07:27:00;;;;;;;3.40;1.38;;;;;;;5.73;81.30;101048.34;5046742;28;20187;-46
2023/03/27 07:29:31;;;;;;;4.97;1.38;;;;;;;5.89;80.42;101043.69;5038524;28;20613;-46
2023/03/27 07:31:58;;;;;;;2.50;1.05;;;;;;;5.90;80.13;101032.16;5036558;28;20491;-46
2023/03/27 07:34:44;;;;;;;5.78;1.35;;;;;;;5.77;79.69;101034.13;5043093;28;20198;-49
2023/03/27 07:37:28;;;;;;;5.53;1.25;;;;;;;6.05;79.54;101033.69;5038340;28;20262;-47
2023/03/27 07:40:20;;;;;;;3.65;1.05;;;;;;;5.97;79.58;101040.94;5042422;28;20191;-47
2023/03/27 07:42:54;;;;;;;5.97;1.40;;;;;;;5.75;78.90;101040.34;5040638;28;20191;-46
2023/03/27 07:45:22;;;;;;;4.28;1.20;;;;;;;5.97;78.72;101036.50;5043985;28;20633;-47
2023/03/27 07:47:53;;;;;;;4.22;1.10;;;;;;;6.32;78.38;101037.69;5035232;28;20765;-46
2023/03/27 07:50:20;;;;;;;3.63;1.00;;;;;;;6.10;78.42;101037.19;5039177;28;20290;-47
2023/03/27 07:52:48;;;;;;;4.90;1.13;;;;;;;6.47;77.38;101025.91;5037858;28;20247;-50
2023/03/27 07:55:21;;;;;;;4.28;1.05;;;;;;;6.26;76.80;101023.63;5050141;28;20253;-50
2023/03/27 07:57:57;;;;;;;6.80;1.35;;;;;;;6.05;77.27;101031.03;5045992;28;20562;-46
2023/03/27 08:00:23;;;;;;;3.17;1.73;;;;;;;6.47;77.40;101046.31;5041031;28;20270;-49
2023/03/27 08:03:09;;;;;;;7.43;1.80;;;;;;;6.34;75.91;101033.22;5036443;28;20192;-48
2023/03/27 08:05:37;;;;;;;4.55;0.80;;;;;;;6.47;75.23;101027.66;5047344;28;20670;-48
2023/03/27 08:08:08;;;;;;;6.20;1.85;;;;;;;6.89;74.27;101028.66;5040900;28;20302;-46
2023/03/27 08:10:46;;;;;;;2.80;1.10;;;;;;;7.12;73.70;101021.97;5030517;28;20188;-49
2023/03/27 08:13:14;;;;;;;8.07;1.00;;;;;;;7.32;72.79;101018.88;5046960;28;20192;-47
2023/03/27 08:15:40;;;;;;;3.72;0.95;;;;;;;7.17;71.50;101020.97;5039210;28;20286;-46
2023/03/27 08:18:17;;;;;;;1.70;1.02;;;;;;;6.84;70.85;101019.88;5049312;28;20259;-47
2023/03/27 08:20:44;;;;;;;3.85;1.13;;;;;;;7.45;70.38;101025.69;5038877;28;20302;-46
2023/03/27 08:23:10;;;;;;;4.75;1.20;;;;;;;7.67;69.64;101017.22;5053071;28;20198;-49
2023/03/27 08:25:54;;;;;;;3.65;0.80;;;;;;;7.35;68.80;101011.72;5042744;28;20704;-45
2023/03/27 08:28:22;;;;;;;4.80;0.90;;;;;;;7.28;68.78;101009.19;5034893;28;20207;-42
2023/03/27 08:30:48;;;;;;;6.22;1.33;;;;;;;7.38;68.96;101000.97;5038829;28;20232;-44
2023/03/27 08:33:13;;;;;;;2.75;1.10;;;;;;;7.10;68.79;101008.69;5033115;28;20187;-41
2023/03/27 08:35:39;;;;;;;5.93;1.50;;;;;;;7.05;68.13;101013.22;5031231;28;20234;-42
2023/03/27 08:38:05;;;;;;;6.30;1.45;;;;;;;7.31;67.99;101011.81;5045658;28;20175;-43
2023/03/27 08:41:02;;;;;;;2.33;0.80;;;;;;;6.90;67.64;101008.22;5038484;28;20210;-42
2023/03/27 08:43:43;;;;;;;3.08;0.90;;;;;;;7.25;67.30;101002.16;5038561;28;20192;-43
2023/03/27 08:46:12;;;;;;;4.72;1.33;;;;;;;6.56;67.05;100996.44;5037281;28;20588;-42
2023/03/27 08:48:58;;;;;;;3.90;0.90;;;;;;;6.09;66.52;100989.31;5039837;28;20230;-43
2023/03/27 08:51:45;;;;;;;5.20;1.10;;;;;;;6.74;66.61;101005.00;5033575;28;20192;-44
2023/03/27 08:54:17;;;;;;;8.60;1.80;;;;;;;6.69;66.85;101013.06;5018241;28;20195;-42
2023/03/27 08:56:44;;;;;;;5.13;1.08;;;;;;;6.09;67.77;101002.63;5030550;28;20204;-45
2023/03/27 08:59:18;;;;;;;4.03;1.02;;;;;;;5.90;67.59;101020.63;5041690;28;20245;-42
2023/03/27 09:01:57;;;;;;;2.58;0.82;;;;;;;5.69;66.19;101009.44;5037309;28;20179;-42
2023/03/27 09:04:41;;;;;;;6.05;1.05;;;;;;;6.25;65.39;100996.13;5042445;28;20576;-44
2023/03/27 09:07:18;;;;;;;2.72;1.10;;;;;;;6.96;64.57;100994.78;5042507;28;20329;-45
2023/03/27 09:10:37;;;;;;;5.70;0.93;;;;;;;7.39;63.72;100981.41;5035148;28;20187;-45
2023/03/27 09:13:25;;;;;;;2.03;1.00;;;;;;;7.51;63.58;100995.38;5048509;28;20250;-44
2023/03/27 09:15:59;;;;;;;4.70;1.27;;;;;;;6.27;63.48;100988.13;5040150;28;20682;-43
2023/03/27 09:18:29;;;;;;;5.07;1.30;;;;;;;5.97;64.27;100982.44;5044012;28;20199;-42
2023/03/27 09:21:03;;;;;;;5.55;1.35;;;;;;;6.69;63.84;101001.53;5039865;28;20187;-42
2023/03/27 09:23:36;;;;;;;4.38;1.10;;;;;;;6.90;62.75;100982.47;5045731;28;20208;-44
2023/03/27 09:26:27;;;;;;;3.35;0.90;;;;;;;7.17;62.25;100981.00;5036465;28;20210;-43
2023/03/27 09:29:20;;;;;;;3.25;1.02;;;;;;;7.34;61.56;100969.97;5039165;28;20557;-42
2023/03/27 09:31:55;;;;;;;4.22;1.50;;;;;;;6.54;61.07;100947.69;5049014;28;20565;-41
2023/03/27 09:34:33;;;;;;;4.65;1.35;;;;;;;6.10;60.73;100954.72;5046064;28;20217;-44
2023/03/27 09:36:59;;;;;;;3.08;0.88;;;;;;;6.47;60.38;100953.16;5040771;28;20211;-41
2023/03/27 09:39:33;;;;;;;4.78;1.17;;;;;;;6.34;60.73;100958.72;5039726;28;20665;-43
2023/03/27 09:42:30;;;;;;;4.80;0.93;;;;;;;6.46;60.84;100970.91;5041336;28;20196;-43
2023/03/27 09:45:01;;;;;;;6.18;1.08;;;;;;;7.04;60.11;100970.63;5045000;28;20276;-44
2023/03/27 09:47:37;;;;;;;4.88;1.20;;;;;;;7.04;60.46;100967.97;5020868;28;20203;-43
2023/03/27 09:50:26;;;;;;;4.70;1.45;;;;;;;6.54;61.08;100970.78;5048994;28;20243;-42
2023/03/27 09:53:08;;;;;;;4.97;1.02;;;;;;;6.57;61.52;100973.38;5037861;28;20252;-44
2023/03/27 09:55:55;;;;;;;4.35;1.30;;;;;;;6.80;60.73;100975.59;5043059;28;20580;-46
2023/03/27 09:58:29;;;;;;;6.90;1.50;;;;;;;6.37;60.51;100963.09;5042743;28;20218;-46
2023/03/27 10:01:15;;;;;;;5.78;1.77;;;;;;;6.08;59.74;100948.56;5036430;28;20670;-43
2023/03/27 10:03:51;;;;;;;6.10;1.40;;;;;;;5.87;61.58;100968.38;5043743;28;20279;-44
2023/03/27 10:06:37;;;;;;;3.22;1.20;;;;;;;5.55;61.28;100992.78;5040152;28;20374;-43
2023/03/27 10:09:21;;;;;;;5.15;1.13;;;;;;;4.68;67.18;101072.69;5035434;28;20212;-44
2023/03/27 10:11:50;;;;;;;4.80;0.88;;;;;;;4.03;72.42;101140.41;5034427;28;20411;-42
2023/03/27 10:14:25;;;;;;;5.72;1.15;;;;;;;3.89;75.91;101167.91;5043467;28;20273;-43
2023/03/27 10:16:51;;;;;;;3.08;1.02;;;;;;;4.31;77.99;101191.50;5043454;28;20215;-42
2023/03/27 10:19:25;;;;;;;5.63;1.58;;;;;;;4.06;78.45;101196.94;5039360;28;20184;-49
2023/03/27 10:21:55;;;;;;;6.70;1.20;;;;;;;4.20;80.05;101193.31;5034214;28;20186;-49
2023/03/27 10:24:32;;;;;;;3.67;0.90;;;;;;;4.12;79.61;101185.44;5046714;28;20240;-49
2023/03/27 10:27:29;;;;;;;4.00;0.80;;;;;;;3.96;79.37;101183.75;5036670;28;20211;-49
2023/03/27 10:30:26;;;;;;;4.95;0.93;;;;;;;4.38;79.41;101187.91;5035798;28;20199;-49
2023/03/27 10:32:56;;;;;;;2.25;0.90;;;;;;;4.98;79.36;101167.94;5043989;28;20188;-50
2023/03/27 10:35:51;;;;;;;4.55;0.90;;;;;;;5.36;79.47;101180.84;5025781;28;20243;-51
2023/03/27 10:38:38;;;;;;;4.20;0.80;;;;;;;6.04;78.16;101167.63;5034847;28;20229;-47
2023/03/27 10:41:27;;;;;;;3.92;1.25;;;;;;;6.00;76.04;101136.63;5033885;28;20199;-50
2023/03/27 10:43:55;;;;;;;1.27;0.70;;;;;;;6.56;74.72;101142.88;5045331;28;20215;-49
2023/03/27 10:46:37;;;;;;;3.47;1.27;;;;;;;6.55;74.62;101130.44;5034690;28;20236;-48
2023/03/27 10:49:15;;;;;;;3.78;1.15;;;;;;;6.18;73.15;101128.38;5015379;28;20246;-50
2023/03/27 10:51:41;;;;;;;4.28;0.95;;;;;;;6.51;73.25;101122.53;5040965;28;20190;-49
2023/03/27 10:54:13;;;;;;;3.28;1.05;;;;;;;6.73;71.84;101112.41;5032624;28;20188;-50
2023/03/27 10:56:55;;;;;;;5.13;0.98;;;;;;;6.67;71.29;101108.06;5044418;28;20322;-46
2023/03/27 10:59:55;;;;;;;1.15;0.93;;;;;;;7.07;70.56;101102.00;5042083;28;20267;-46
2023/03/27 11:02:45;;;;;;;1.58;0.68;;;;;;;6.99;68.81;101088.81;4971243;28;20209;-48
2023/03/27 11:05:18;;;;;;;3.22;0.82;;;;;;;6.85;66.60;101060.72;5038107;28;20202;-48
2023/03/27 11:08:01;;;;;;;4.18;0.90;;;;;;;6.98;64.91;101057.78;5034617;28;20686;-48
2023/03/27 11:10:42;;;;;;;4.25;0.82;;;;;;;6.77;64.87;101045.72;5044428;28;20215;-48
2023/03/27 11:13:31;;;;;;;3.53;1.00;;;;;;;6.51;64.92;101063.97;5038154;28;20317;-47
2023/03/27 11:16:10;;;;;;;3.60;0.93;;;;;;;6.73;65.01;101061.81;5049083;28;20203;-47
2023/03/27 11:19:10;;;;;;;4.13;0.80;;;;;;;6.82;65.66;101066.94;5041055;28;20187;-46
2023/03/27 11:22:04;;;;;;;4.50;0.75;;;;;;;6.86;63.94;101060.66;5035064;28;20191;-47
2023/03/27 11:24:55;;;;;;;4.55;1.17;;;;;;;6.66;63.91;101053.06;5042519;28;20183;-48
2023/03/27 11:27:31;;;;;;;5.38;0.95;;;;;;;6.30;64.93;101062.59;5041786;28;20210;-47
2023/03/27 11:30:07;;;;;;;2.53;0.93;;;;;;;6.86;66.71;101084.63;5039804;28;20180;-46
2023/03/27 11:33:14;;;;;;;3.97;1.23;;;;;;;7.05;66.52;101093.16;5045994;28;20215;-46
2023/03/27 11:35:49;;;;;;;2.97;1.40;;;;;;;7.35;65.27;101064.16;5041263;28;20303;-44
2023/03/27 11:38:40;;;;;;;4.25;1.48;;;;;;;6.99;64.34;101056.84;5051327;28;20199;-45
2023/03/27 11:41:13;;;;;;;7.05;1.40;;;;;;;7.40;64.21;101048.91;5037131;28;20219;-44
2023/03/27 11:43:39;;;;;;;5.88;1.50;;;;;;;7.35;63.44;101040.16;5034986;28;20258;-45
2023/03/27 11:46:28;;;;;;;5.97;1.20;;;;;;;7.42;62.03;101023.09;5044472;28;20305;-45
2023/03/27 11:49:10;;;;;;;2.35;0.90;;;;;;;7.19;61.19;101010.25;5036755;28;20582;-46
2023/03/27 11:51:45;;;;;;;3.80;0.98;;;;;;;6.79;60.83;101006.63;5019683;28;20322;-46
2023/03/27 11:54:32;;;;;;;2.35;0.75;;;;;;;6.87;61.23;101016.28;5038661;28;20233;-46
2023/03/27 11:57:09;;;;;;;3.58;0.88;;;;;;;6.37;61.50;101005.69;5047480;28;20851;-46
2023/03/27 12:00:20;;;;;;;3.00;0.95;;;;;;;6.22;61.67;101013.94;5036990;28;20192;-46
2023/03/27 12:02:49;;;;;;;6.85;0.90;;;;;;;5.89;62.59;101049.00;5037730;28;20187;-47
2023/03/27 12:05:22;;;;;;;5.18;1.20;;;;;;;5.67;63.19;101063.53;5040276;28;20614;-45